To NAV CANADA Home Page Login to a new session Search on AWWS site Feedback and Comments Disclaimer Vers la page française équivalente Tips FAQ What's new on the site To the Forecasts and Observations / NOTAM section To "File a Flight Plan" website Publications and other links Update of the User's profile FIC Telephone Numbers My Weather Data Folder Route Weather Data Regional Weather Data Local Weather Data To the Forecasts and Observations / NOTAM section
Request Generated 05/30/2016 at 00:59:52 UTC . Weather information available at that time is displayed.

METAR/TAF

SUDBURY/ON    

METAR CYSB 300000Z 18012G17KT 15SM FEW030 SCT150 BKN200 23/18 A2982
RMK CF1AC2CI3 SLP100 DENSITY ALT 2300FT=
METAR CYSB 292300Z 21013G23KT 15SM FEW030 BKN210 24/18 A2984 RMK
CU2CI3 SLP105 DENSITY ALT 2400FT=
METAR CYSB 292200Z 21016G27KT 15SM FEW030 BKN210 25/17 A2985 RMK
CU2CI4 SLP107 DENSITY ALT 2600FT=

TAF CYSB 291938Z 2920/3008 20015G25KT P6SM SCT040 BKN180
FM300000 22015KT P6SM BKN040
FM300600 21008KT P6SM FEW020 BKN040 TEMPO 3006/3008 BKN020 BKN040
RMK NXT FCST BY 300200Z=
Your time UTC time
Weather data provided by Environment Canada and NAV CANADA